Vargem Grande do Sul, Brazil
Current Conditions -  °F | °C
As of 7:15 AM on Friday 19 Dec 2014 (Local Time) from SBPC Reporting Station
Broken Clouds Broken Clouds  
Wind Chill: 63°   Ceiling: 10000
Heat Index: 63°   Visibility: 6mi
Dew Point: 63°   Wind: 0mph
Humidity: 100%   Direction: NA
Pressure: 30.03"   Gusts: NA
Location:  21.83°S, 46.89°W
Report Text: SBPC 190915Z 00000KT 9999 SCT012 BKN100 17/17 Q1017
Loading
Personal Weather Stations






























Interactive Weather Map New forecast layout! Learn more

10-Day Weather Forecast

Advertisements
Track Severe Weather on mobile